createdAt,value
2023-01-18T00:00:40.187Z,3.07
2023-01-18T00:03:11.159Z,3.24
2023-01-18T00:05:41.004Z,3.16
2023-01-18T00:08:11.876Z,2.65
2023-01-18T00:10:38.799Z,2.88
2023-01-18T00:13:05.717Z,2.70
2023-01-18T00:15:33.129Z,2.74
2023-01-18T00:17:59.532Z,2.98
2023-01-18T00:20:27.070Z,3.05
2023-01-18T00:22:53.492Z,3.10
2023-01-18T00:25:22.128Z,3.05
2023-01-18T00:27:51.657Z,3.01
2023-01-18T00:30:21.062Z,3.01
2023-01-18T00:32:48.463Z,3.06
2023-01-18T00:35:15.646Z,3.13
2023-01-18T00:37:42.951Z,3.11
2023-01-18T00:40:10.277Z,3.00
2023-01-18T00:42:55.455Z,2.72
2023-01-18T00:45:22.062Z,2.93
2023-01-18T00:47:48.462Z,2.88
2023-01-18T00:50:15.044Z,2.95
2023-01-18T00:52:46.572Z,2.88
2023-01-18T00:55:14.944Z,2.95
2023-01-18T00:57:41.821Z,2.94
2023-01-18T01:00:11.163Z,2.86
2023-01-18T01:02:41.627Z,2.84
2023-01-18T01:05:46.819Z,2.74
2023-01-18T01:08:18.403Z,2.79
2023-01-18T01:10:48.230Z,2.67
2023-01-18T01:13:36.263Z,2.20
2023-01-18T01:16:26.619Z,1.33
2023-01-18T01:19:11.936Z,1.85
2023-01-18T01:21:57.208Z,2.17
2023-01-18T01:24:42.577Z,2.38
2023-01-18T01:27:10.549Z,2.46
2023-01-18T01:29:37.737Z,2.20
2023-01-18T01:32:05.061Z,2.34
2023-01-18T01:34:31.875Z,2.33
2023-01-18T01:36:58.417Z,2.21
2023-01-18T01:39:24.842Z,2.28
2023-01-18T01:41:51.486Z,2.45
2023-01-18T01:44:17.853Z,2.44
2023-01-18T01:46:50.722Z,2.37
2023-01-18T01:49:29.855Z,2.22
2023-01-18T01:52:12.177Z,2.33
2023-01-18T01:55:02.268Z,2.31
2023-01-18T01:57:34.483Z,2.31
2023-01-18T02:00:00.899Z,2.24
2023-01-18T02:02:30.515Z,2.38
2023-01-18T02:04:58.462Z,2.19
2023-01-18T02:07:28.821Z,1.72
2023-01-18T02:09:57.315Z,1.82
2023-01-18T02:12:24.244Z,1.91
2023-01-18T02:14:51.497Z,2.10
2023-01-18T02:17:55.575Z,2.07
2023-01-18T02:20:38.127Z,2.10
2023-01-18T02:23:33.142Z,1.68
2023-01-18T02:26:30.445Z,1.84
2023-01-18T02:29:31.237Z,1.77
2023-01-18T02:32:19.021Z,1.96
2023-01-18T02:35:03.736Z,1.57
2023-01-18T02:37:33.064Z,1.90
2023-01-18T02:40:08.926Z,1.88
2023-01-18T02:42:56.964Z,1.92
2023-01-18T02:45:51.110Z,1.94
2023-01-18T02:48:20.937Z,2.01
2023-01-18T02:50:47.352Z,1.99
2023-01-18T02:53:17.380Z,1.58
2023-01-18T02:56:04.884Z,1.72
2023-01-18T02:58:57.450Z,2.05
2023-01-18T03:01:33.314Z,2.04
2023-01-18T03:04:06.296Z,1.95
2023-01-18T03:06:33.359Z,1.91
2023-01-18T03:09:00.638Z,1.72
2023-01-18T03:11:33.101Z,1.92
2023-01-18T03:14:05.439Z,1.79
2023-01-18T03:16:57.845Z,1.88
2023-01-18T03:19:56.181Z,1.95
2023-01-18T03:22:45.577Z,1.56
2023-01-18T03:25:16.609Z,1.60
2023-01-18T03:28:04.632Z,1.76
2023-01-18T03:30:51.540Z,2.05
2023-01-18T03:33:40.156Z,2.12
2023-01-18T03:36:11.263Z,2.11
2023-01-18T03:38:42.364Z,2.17
2023-01-18T03:41:11.313Z,2.27
2023-01-18T03:43:39.905Z,2.26
2023-01-18T03:46:08.044Z,2.25
2023-01-18T03:48:36.566Z,2.26
2023-01-18T03:51:15.745Z,2.27
2023-01-18T03:54:06.568Z,2.30
2023-01-18T03:56:43.373Z,2.22
2023-01-18T03:59:10.018Z,2.20
2023-01-18T04:01:36.771Z,2.07
2023-01-18T04:04:03.343Z,1.98
2023-01-18T04:06:32.472Z,1.85
2023-01-18T04:08:58.936Z,1.90
2023-01-18T04:11:25.357Z,1.83
2023-01-18T04:13:53.725Z,1.84
2023-01-18T04:16:21.012Z,1.48
2023-01-18T04:18:48.397Z,1.06
2023-01-18T04:21:14.828Z,1.37
2023-01-18T04:23:41.248Z,1.58
2023-01-18T04:26:07.684Z,1.83
2023-01-18T04:28:34.565Z,2.02
2023-01-18T04:31:01.030Z,2.05
2023-01-18T04:33:27.874Z,1.72
2023-01-18T04:35:54.610Z,1.62
2023-01-18T04:38:21.375Z,1.69
2023-01-18T04:40:47.847Z,1.88
2023-01-18T04:43:14.252Z,2.08
2023-01-18T04:45:40.737Z,2.08
2023-01-18T04:48:08.593Z,2.10
2023-01-18T04:50:35.021Z,2.12
2023-01-18T04:53:01.605Z,2.15
2023-01-18T04:55:28.170Z,2.03
2023-01-18T04:57:58.430Z,2.13
2023-01-18T05:00:25.268Z,2.15
2023-01-18T05:02:51.717Z,2.00
2023-01-18T05:05:18.403Z,2.10
2023-01-18T05:07:44.842Z,2.15
2023-01-18T05:10:12.105Z,2.13
2023-01-18T05:12:38.605Z,2.02
2023-01-18T05:15:05.949Z,2.05
2023-01-18T05:17:34.662Z,2.03
2023-01-18T05:20:02.447Z,1.70
2023-01-18T05:22:29.177Z,1.89
2023-01-18T05:24:55.700Z,2.05
2023-01-18T05:27:22.278Z,2.12
2023-01-18T05:29:48.736Z,2.05
2023-01-18T05:32:15.198Z,2.08
2023-01-18T05:34:42.285Z,1.79
2023-01-18T05:37:09.042Z,1.88
2023-01-18T05:39:35.615Z,2.03
2023-01-18T05:42:02.296Z,2.00
2023-01-18T05:44:28.865Z,2.05
2023-01-18T05:46:55.460Z,1.97
2023-01-18T05:49:22.293Z,1.72
2023-01-18T05:51:49.066Z,1.69
2023-01-18T05:54:15.618Z,1.80
2023-01-18T05:56:42.228Z,1.58
2023-01-18T05:59:09.181Z,0.96
2023-01-18T06:01:35.751Z,0.96
2023-01-18T06:04:02.236Z,1.19
2023-01-18T06:06:28.689Z,1.72
2023-01-18T06:08:55.359Z,1.75
2023-01-18T06:11:21.769Z,1.83
2023-01-18T06:13:48.224Z,1.91
2023-01-18T06:16:14.694Z,2.01
2023-01-18T06:18:41.454Z,1.91
2023-01-18T06:21:08.147Z,1.85
2023-01-18T06:23:35.304Z,1.85
2023-01-18T06:26:01.863Z,1.79
2023-01-18T06:28:30.495Z,1.84
2023-01-18T06:30:57.657Z,1.90
2023-01-18T06:33:24.498Z,1.94
2023-01-18T06:36:00.469Z,1.93
2023-01-18T06:38:27.191Z,2.09
2023-01-18T06:40:53.667Z,1.90
2023-01-18T06:43:20.176Z,1.78
2023-01-18T06:45:52.656Z,1.78
2023-01-18T06:48:19.160Z,1.94
2023-01-18T06:50:45.604Z,2.11
2023-01-18T06:53:12.023Z,1.89
2023-01-18T06:55:38.457Z,1.87
2023-01-18T06:58:04.915Z,1.96
2023-01-18T07:00:31.420Z,2.06
2023-01-18T07:02:58.605Z,2.09
2023-01-18T07:05:25.319Z,2.17
2023-01-18T07:07:51.790Z,2.20
2023-01-18T07:10:18.371Z,2.16
2023-01-18T07:12:48.579Z,2.20
2023-01-18T07:15:21.827Z,1.90
2023-01-18T07:17:50.297Z,2.10
2023-01-18T07:20:17.195Z,2.22
2023-01-18T07:22:43.683Z,2.20
2023-01-18T07:25:13.267Z,2.22
2023-01-18T07:27:43.190Z,2.21
2023-01-18T07:30:12.348Z,2.16
2023-01-18T07:32:39.308Z,2.21
2023-01-18T07:35:06.227Z,1.94
2023-01-18T07:37:34.239Z,2.22
2023-01-18T07:40:00.706Z,2.28
2023-01-18T07:42:27.117Z,2.18
2023-01-18T07:44:53.537Z,2.24
2023-01-18T07:47:20.005Z,2.27
2023-01-18T07:49:46.862Z,2.36
2023-01-18T07:52:13.385Z,2.29
2023-01-18T07:54:40.106Z,2.18
2023-01-18T07:57:06.486Z,1.86
2023-01-18T07:59:33.505Z,1.15
2023-01-18T08:02:00.082Z,0.67
2023-01-18T08:04:26.586Z,1.14
2023-01-18T08:06:53.397Z,1.78
2023-01-18T08:09:19.846Z,2.02
2023-01-18T08:11:46.270Z,2.24
2023-01-18T08:14:12.704Z,2.06
2023-01-18T08:16:39.124Z,2.16
2023-01-18T08:19:05.556Z,2.15
2023-01-18T08:21:33.530Z,2.18
2023-01-18T08:24:00.033Z,1.84
2023-01-18T08:26:26.494Z,1.76
2023-01-18T08:28:53.068Z,1.08
2023-01-18T08:31:21.412Z,1.06
2023-01-18T08:33:48.919Z,1.24
2023-01-18T08:36:19.279Z,1.95
2023-01-18T08:38:55.280Z,1.65
2023-01-18T08:41:28.091Z,1.57
2023-01-18T08:43:59.022Z,1.98
2023-01-18T08:46:26.381Z,2.35
2023-01-18T08:48:55.472Z,2.47
2023-01-18T08:51:23.294Z,2.22
2023-01-18T08:53:54.397Z,1.97
2023-01-18T08:56:21.150Z,2.07
2023-01-18T08:58:47.827Z,2.11
2023-01-18T09:01:14.432Z,2.43
2023-01-18T09:03:41.943Z,2.57
2023-01-18T09:06:11.704Z,2.64
2023-01-18T09:08:39.315Z,2.30
2023-01-18T09:11:08.674Z,2.31
2023-01-18T09:13:35.382Z,2.73
2023-01-18T09:16:08.007Z,3.01
2023-01-18T09:18:34.856Z,3.02
2023-01-18T09:21:10.079Z,3.21
2023-01-18T09:23:37.911Z,3.13
2023-01-18T09:26:16.838Z,3.27
2023-01-18T09:28:47.273Z,3.34
2023-01-18T09:31:14.059Z,3.61
2023-01-18T09:33:51.204Z,3.64
2023-01-18T09:36:21.627Z,3.92
2023-01-18T09:38:48.111Z,3.99
2023-01-18T09:41:39.075Z,3.95
2023-01-18T09:44:23.786Z,4.27
2023-01-18T09:46:54.664Z,3.51
2023-01-18T09:49:37.070Z,4.12
2023-01-18T09:52:37.508Z,4.55
2023-01-18T09:55:28.637Z,4.59
2023-01-18T09:58:05.880Z,3.93
2023-01-18T10:00:37.126Z,4.50
2023-01-18T10:03:18.141Z,3.73
2023-01-18T10:06:08.420Z,4.24
2023-01-18T10:08:56.766Z,4.64
2023-01-18T10:11:33.212Z,4.21
2023-01-18T10:13:59.568Z,3.53
2023-01-18T10:16:26.275Z,3.44
2023-01-18T10:18:55.614Z,2.38
2023-01-18T10:21:55.293Z,2.83
2023-01-18T10:24:33.853Z,2.81
2023-01-18T10:27:28.035Z,3.49
2023-01-18T10:30:02.342Z,3.52
2023-01-18T10:32:30.521Z,3.21
2023-01-18T10:34:58.325Z,3.52
2023-01-18T10:37:40.208Z,4.37
2023-01-18T10:40:10.163Z,4.48
2023-01-18T10:42:45.151Z,4.13
2023-01-18T10:45:23.973Z,4.42
2023-01-18T10:47:52.416Z,4.64
2023-01-18T10:50:24.565Z,4.21
2023-01-18T10:52:51.051Z,4.61
2023-01-18T10:55:19.661Z,3.78
2023-01-18T10:57:48.679Z,4.90
2023-01-18T11:00:34.896Z,4.59
2023-01-18T11:03:05.058Z,4.05
2023-01-18T11:05:38.459Z,4.83
2023-01-18T11:08:33.564Z,5.15
2023-01-18T11:11:14.803Z,5.02
2023-01-18T11:13:44.663Z,4.98
2023-01-18T11:16:20.866Z,5.41
2023-01-18T11:19:17.468Z,4.97
2023-01-18T11:21:46.893Z,4.58
2023-01-18T11:24:17.277Z,5.14
2023-01-18T11:26:56.553Z,5.25
2023-01-18T11:29:28.699Z,4.64
2023-01-18T11:32:00.411Z,4.47
2023-01-18T11:34:39.136Z,4.50
2023-01-18T11:37:30.837Z,4.85
2023-01-18T11:39:57.382Z,3.97
2023-01-18T11:42:34.346Z,4.81
2023-01-18T11:45:14.184Z,5.31
2023-01-18T11:47:53.198Z,4.57
2023-01-18T11:50:22.841Z,4.78
2023-01-18T11:52:56.780Z,5.16
2023-01-18T11:55:25.815Z,4.94
2023-01-18T11:57:54.054Z,5.42
2023-01-18T12:00:27.910Z,5.50
2023-01-18T12:03:02.976Z,5.18
2023-01-18T12:05:36.042Z,5.30
2023-01-18T12:08:38.166Z,5.89
2023-01-18T12:11:10.617Z,6.23
2023-01-18T12:13:54.884Z,4.91
2023-01-18T12:16:33.684Z,5.35
2023-01-18T12:19:26.163Z,4.83
2023-01-18T12:22:23.174Z,4.81
2023-01-18T12:25:08.453Z,4.89
2023-01-18T12:27:55.582Z,4.78
2023-01-18T12:30:28.076Z,3.77
2023-01-18T12:33:04.723Z,4.58
2023-01-18T12:35:53.819Z,4.93
2023-01-18T12:38:25.873Z,5.15
2023-01-18T12:41:16.707Z,5.49
2023-01-18T12:44:23.156Z,5.05
2023-01-18T12:46:58.193Z,4.55
2023-01-18T12:49:27.953Z,4.80
2023-01-18T12:52:17.373Z,5.30
2023-01-18T12:54:48.938Z,5.48
2023-01-18T12:57:17.134Z,5.14
2023-01-18T12:59:52.751Z,4.34
2023-01-18T13:02:39.879Z,5.35
2023-01-18T13:05:22.212Z,5.17
2023-01-18T13:07:55.240Z,5.30
2023-01-18T13:10:25.537Z,5.35
2023-01-18T13:12:54.140Z,5.13
2023-01-18T13:15:35.354Z,5.69
2023-01-18T13:18:18.963Z,5.16
2023-01-18T13:20:58.488Z,5.69
2023-01-18T13:24:02.335Z,5.96
2023-01-18T13:26:32.120Z,5.93
2023-01-18T13:29:22.285Z,5.78
2023-01-18T13:31:49.182Z,5.61
2023-01-18T13:34:47.360Z,5.97
2023-01-18T13:37:40.789Z,5.69
2023-01-18T13:40:39.993Z,5.68
2023-01-18T13:43:31.513Z,6.10
2023-01-18T13:46:07.042Z,5.30
2023-01-18T13:48:47.398Z,5.49
2023-01-18T13:51:39.390Z,6.05
2023-01-18T13:54:06.827Z,5.26
2023-01-18T13:56:34.929Z,5.85
2023-01-18T13:59:04.993Z,5.42
2023-01-18T14:01:36.854Z,5.52
2023-01-18T14:04:22.265Z,4.96
2023-01-18T14:06:50.872Z,5.02
2023-01-18T14:09:18.761Z,5.40
2023-01-18T14:11:57.142Z,5.13
2023-01-18T14:14:35.626Z,5.51
2023-01-18T14:17:15.610Z,4.81
2023-01-18T14:19:48.004Z,5.39
2023-01-18T14:22:38.818Z,5.65
2023-01-18T14:25:23.357Z,5.56
2023-01-18T14:28:02.683Z,5.76
2023-01-18T14:30:36.238Z,5.54
2023-01-18T14:33:18.592Z,6.06
2023-01-18T14:35:57.763Z,5.43
2023-01-18T14:38:25.188Z,5.24
2023-01-18T14:40:54.950Z,5.94
2023-01-18T14:43:27.182Z,5.74
2023-01-18T14:46:05.895Z,6.09
2023-01-18T14:48:34.751Z,5.68
2023-01-18T14:51:02.248Z,6.01
2023-01-18T14:53:44.223Z,6.20
2023-01-18T14:56:26.014Z,6.07
2023-01-18T14:58:57.137Z,5.61
2023-01-18T15:01:37.928Z,5.84
2023-01-18T15:04:23.880Z,5.85
2023-01-18T15:06:56.090Z,6.05
2023-01-18T15:09:27.178Z,6.16
2023-01-18T15:11:58.565Z,5.29
2023-01-18T15:14:30.879Z,5.70
2023-01-18T15:16:58.876Z,6.06
2023-01-18T15:19:46.186Z,6.07
2023-01-18T15:22:15.943Z,5.90
2023-01-18T15:24:45.045Z,6.00
2023-01-18T15:27:14.279Z,6.05
2023-01-18T15:29:40.829Z,6.03
2023-01-18T15:32:24.964Z,5.95
2023-01-18T15:34:52.847Z,5.98
2023-01-18T15:37:23.307Z,6.01
2023-01-18T15:39:56.774Z,5.93
2023-01-18T15:42:46.703Z,5.91
2023-01-18T15:45:17.442Z,5.93
2023-01-18T15:47:50.215Z,5.89
2023-01-18T15:50:21.531Z,5.84
2023-01-18T15:52:53.821Z,5.79
2023-01-18T15:55:28.334Z,5.74
2023-01-18T15:57:59.797Z,5.68
2023-01-18T16:00:37.977Z,5.64
2023-01-18T16:03:18.674Z,5.62
2023-01-18T16:06:02.140Z,5.63
2023-01-18T16:08:28.601Z,5.64
2023-01-18T16:10:56.850Z,5.57
2023-01-18T16:13:26.153Z,5.59
2023-01-18T16:16:13.949Z,5.46
2023-01-18T16:18:50.483Z,5.19
2023-01-18T16:21:26.352Z,5.26
2023-01-18T16:23:53.912Z,5.25
2023-01-18T16:26:29.463Z,5.19
2023-01-18T16:29:05.493Z,5.05
2023-01-18T16:31:33.357Z,5.13
2023-01-18T16:33:59.837Z,4.92
2023-01-18T16:36:29.713Z,5.14
2023-01-18T16:38:58.583Z,5.09
2023-01-18T16:41:25.065Z,4.99
2023-01-18T16:43:52.084Z,5.09
2023-01-18T16:46:19.176Z,4.77
2023-01-18T16:48:45.636Z,4.66
2023-01-18T16:51:14.182Z,4.43
2023-01-18T16:53:40.638Z,4.66
2023-01-18T16:56:07.306Z,4.59
2023-01-18T16:58:35.116Z,4.67
2023-01-18T17:01:07.301Z,4.70
2023-01-18T17:03:35.961Z,4.75
2023-01-18T17:06:03.280Z,4.92
2023-01-18T17:08:29.730Z,4.60
2023-01-18T17:10:56.549Z,4.54
2023-01-18T17:13:23.705Z,4.77
2023-01-18T17:15:51.979Z,4.73
2023-01-18T17:18:25.680Z,4.83
2023-01-18T17:20:53.424Z,4.87
2023-01-18T17:23:20.283Z,4.59
2023-01-18T17:25:46.947Z,4.48
2023-01-18T17:28:15.517Z,4.42
2023-01-18T17:30:44.191Z,4.24
2023-01-18T17:33:20.716Z,4.21
2023-01-18T17:35:52.085Z,4.37
2023-01-18T17:38:24.472Z,4.66
2023-01-18T17:40:51.702Z,4.63
2023-01-18T17:43:28.412Z,4.64
2023-01-18T17:46:02.496Z,4.36
2023-01-18T17:48:29.100Z,4.05
2023-01-18T17:50:55.592Z,4.22
2023-01-18T17:53:22.083Z,4.20
2023-01-18T17:55:48.496Z,4.34
2023-01-18T17:58:15.018Z,4.46
2023-01-18T18:00:41.511Z,4.22
2023-01-18T18:03:08.976Z,4.41
2023-01-18T18:05:35.711Z,4.40
2023-01-18T18:08:02.149Z,4.33
2023-01-18T18:10:28.545Z,4.19
2023-01-18T18:12:55.025Z,4.33
2023-01-18T18:15:23.373Z,4.21
2023-01-18T18:17:49.831Z,4.40
2023-01-18T18:20:17.334Z,4.44
2023-01-18T18:22:43.879Z,4.40
2023-01-18T18:25:10.416Z,4.22
2023-01-18T18:27:45.576Z,4.14
2023-01-18T18:30:13.206Z,3.83
2023-01-18T18:32:39.863Z,4.21
2023-01-18T18:35:23.046Z,4.36
2023-01-18T18:37:50.872Z,4.31
2023-01-18T18:40:17.791Z,4.23
2023-01-18T18:42:49.930Z,4.15
2023-01-18T18:45:26.677Z,3.91
2023-01-18T18:47:53.109Z,3.89
2023-01-18T18:50:19.616Z,3.89
2023-01-18T18:52:46.048Z,3.82
2023-01-18T18:55:12.509Z,3.77
2023-01-18T18:57:39.135Z,3.91
2023-01-18T19:00:08.901Z,4.11
2023-01-18T19:02:35.689Z,4.15
2023-01-18T19:05:02.435Z,4.38
2023-01-18T19:07:28.939Z,4.46
2023-01-18T19:09:55.529Z,4.34
2023-01-18T19:12:22.040Z,4.24
2023-01-18T19:14:48.875Z,4.11
2023-01-18T19:17:25.053Z,4.20
2023-01-18T19:19:56.385Z,4.29
2023-01-18T19:22:22.950Z,4.27
2023-01-18T19:24:49.423Z,4.28
2023-01-18T19:27:16.471Z,4.18
2023-01-18T19:29:43.216Z,4.14
2023-01-18T19:32:09.966Z,4.27
2023-01-18T19:34:38.466Z,4.22
2023-01-18T19:37:05.265Z,3.90
2023-01-18T19:39:34.745Z,4.02
2023-01-18T19:42:02.285Z,4.15
2023-01-18T19:44:28.974Z,4.23
2023-01-18T19:46:56.811Z,4.06
2023-01-18T19:49:25.581Z,4.16
2023-01-18T19:51:52.903Z,4.21
2023-01-18T19:54:19.371Z,3.91
2023-01-18T19:56:46.151Z,4.06
2023-01-18T19:59:14.537Z,4.24
2023-01-18T20:01:41.144Z,3.75
2023-01-18T20:04:08.586Z,3.97
2023-01-18T20:06:38.260Z,3.80
2023-01-18T20:09:17.750Z,3.83
2023-01-18T20:11:45.153Z,3.80
2023-01-18T20:14:11.871Z,3.82
2023-01-18T20:16:38.959Z,4.18
2023-01-18T20:19:05.472Z,4.16
2023-01-18T20:21:31.893Z,4.36
2023-01-18T20:23:58.407Z,4.20
2023-01-18T20:26:36.070Z,3.93
2023-01-18T20:29:06.631Z,3.94
2023-01-18T20:31:34.557Z,4.13
2023-01-18T20:34:01.004Z,3.89
2023-01-18T20:36:27.920Z,4.10
2023-01-18T20:38:54.412Z,3.89
2023-01-18T20:41:20.905Z,3.85
2023-01-18T20:43:47.567Z,3.54
2023-01-18T20:46:14.182Z,3.78
2023-01-18T20:48:40.747Z,3.41
2023-01-18T20:51:10.339Z,3.45
2023-01-18T20:53:38.200Z,3.70
2023-01-18T20:56:08.361Z,3.69
2023-01-18T20:58:39.291Z,3.68
2023-01-18T21:01:07.630Z,3.85
2023-01-18T21:03:34.088Z,4.05
2023-01-18T21:06:00.573Z,3.88
2023-01-18T21:08:27.688Z,3.95
2023-01-18T21:10:54.086Z,3.48
2023-01-18T21:13:20.561Z,3.84
2023-01-18T21:15:54.493Z,4.08
2023-01-18T21:18:22.094Z,4.21
2023-01-18T21:20:56.987Z,4.02
2023-01-18T21:23:26.986Z,3.72
2023-01-18T21:25:56.101Z,3.94
2023-01-18T21:28:23.201Z,3.71
2023-01-18T21:30:54.312Z,3.82
2023-01-18T21:33:20.887Z,4.12
2023-01-18T21:35:47.555Z,3.97
2023-01-18T21:38:14.831Z,3.94
2023-01-18T21:40:41.401Z,3.97
2023-01-18T21:43:26.484Z,3.83
2023-01-18T21:45:56.810Z,3.81
2023-01-18T21:48:24.596Z,3.40
2023-01-18T21:51:09.691Z,3.77
2023-01-18T21:53:54.503Z,3.62
2023-01-18T21:56:21.311Z,3.82
2023-01-18T21:58:53.801Z,4.10
2023-01-18T22:01:23.348Z,3.91
2023-01-18T22:04:13.264Z,3.91
2023-01-18T22:06:42.740Z,3.96
2023-01-18T22:09:09.189Z,3.76
2023-01-18T22:11:35.734Z,4.07
2023-01-18T22:14:04.107Z,3.99
2023-01-18T22:16:31.555Z,3.96
2023-01-18T22:19:01.616Z,3.71
2023-01-18T22:21:28.707Z,4.15
2023-01-18T22:23:55.502Z,4.06
2023-01-18T22:26:23.521Z,3.88
2023-01-18T22:28:50.264Z,3.78
2023-01-18T22:31:17.213Z,3.94
2023-01-18T22:33:45.440Z,3.65
2023-01-18T22:36:12.764Z,4.02
2023-01-18T22:38:39.613Z,4.01
2023-01-18T22:41:06.139Z,4.07
2023-01-18T22:43:34.385Z,4.15
2023-01-18T22:46:00.995Z,4.12
2023-01-18T22:48:27.780Z,3.79
2023-01-18T22:50:55.818Z,3.97
2023-01-18T22:53:23.124Z,3.75
2023-01-18T22:55:49.619Z,4.05
2023-01-18T22:58:16.927Z,3.92
2023-01-18T23:00:48.737Z,3.80
2023-01-18T23:03:17.397Z,3.84
2023-01-18T23:05:55.801Z,3.61
2023-01-18T23:08:24.010Z,3.90
2023-01-18T23:10:56.472Z,3.73
2023-01-18T23:13:23.466Z,3.65
2023-01-18T23:16:08.680Z,3.95
2023-01-18T23:18:35.131Z,3.29
2023-01-18T23:21:01.724Z,3.66
2023-01-18T23:23:28.214Z,3.85
2023-01-18T23:25:58.777Z,3.94
2023-01-18T23:28:41.054Z,3.87
2023-01-18T23:31:12.001Z,3.74
2023-01-18T23:33:39.300Z,3.87
2023-01-18T23:36:06.919Z,3.51
2023-01-18T23:38:51.668Z,3.72
2023-01-18T23:41:36.965Z,3.44
2023-01-18T23:44:22.315Z,3.81
2023-01-18T23:47:07.133Z,3.48
2023-01-18T23:49:51.941Z,3.51
2023-01-18T23:52:36.830Z,3.37
2023-01-18T23:55:04.483Z,3.62
2023-01-18T23:57:31.766Z,3.09
2023-01-18T23:59:58.470Z,3.44
